sensor_id;sensor_type;location;lat;lon;timestamp;temperature;humidity
23471;DHT22;11908;50.806;4.424;2023-05-15T00:01:48;12.70;99.90
23471;DHT22;11908;50.806;4.424;2023-05-15T00:04:13;12.70;99.90
23471;DHT22;11908;50.806;4.424;2023-05-15T00:06:39;12.70;99.90
23471;DHT22;11908;50.806;4.424;2023-05-15T00:09:05;12.80;99.90
23471;DHT22;11908;50.806;4.424;2023-05-15T00:11:30;12.70;99.90
23471;DHT22;11908;50.806;4.424;2023-05-15T00:13:56;12.60;99.90
23471;DHT22;11908;50.806;4.424;2023-05-15T00:16:22;12.60;99.90
23471;DHT22;11908;50.806;4.424;2023-05-15T00:18:48;12.50;99.90
23471;DHT22;11908;50.806;4.424;2023-05-15T00:21:14;12.50;99.90
23471;DHT22;11908;50.806;4.424;2023-05-15T00:23:39;12.50;99.90
23471;DHT22;11908;50.806;4.424;2023-05-15T00:26:05;12.40;99.90
23471;DHT22;11908;50.806;4.424;2023-05-15T00:28:31;12.40;99.90
23471;DHT22;11908;50.806;4.424;2023-05-15T00:30:56;12.30;99.90
23471;DHT22;11908;50.806;4.424;2023-05-15T00:33:22;12.30;99.90
23471;DHT22;11908;50.806;4.424;2023-05-15T00:35:48;12.30;99.90
23471;DHT22;11908;50.806;4.424;2023-05-15T00:38:13;12.20;99.90
23471;DHT22;11908;50.806;4.424;2023-05-15T00:40:40;12.30;99.90
23471;DHT22;11908;50.806;4.424;2023-05-15T00:43:07;12.30;99.90
23471;DHT22;11908;50.806;4.424;2023-05-15T00:45:34;12.40;99.90
23471;DHT22;11908;50.806;4.424;2023-05-15T00:48:01;12.40;99.90
23471;DHT22;11908;50.806;4.424;2023-05-15T00:50:27;12.30;99.90
23471;DHT22;11908;50.806;4.424;2023-05-15T00:52:54;12.30;99.90
23471;DHT22;11908;50.806;4.424;2023-05-15T00:55:19;12.30;99.90
23471;DHT22;11908;50.806;4.424;2023-05-15T00:57:46;12.20;99.90
23471;DHT22;11908;50.806;4.424;2023-05-15T01:03:35;12.00;99.90
23471;DHT22;11908;50.806;4.424;2023-05-15T01:06:02;12.00;99.90
23471;DHT22;11908;50.806;4.424;2023-05-15T01:08:46;12.10;99.90
23471;DHT22;11908;50.806;4.424;2023-05-15T01:11:14;12.10;99.90
23471;DHT22;11908;50.806;4.424;2023-05-15T01:13:40;12.00;99.90
23471;DHT22;11908;50.806;4.424;2023-05-15T01:16:07;12.10;99.90
23471;DHT22;11908;50.806;4.424;2023-05-15T01:18:33;12.00;99.90
23471;DHT22;11908;50.806;4.424;2023-05-15T01:41:14;11.70;99.90
23471;DHT22;11908;50.806;4.424;2023-05-15T01:43:43;11.70;99.90
23471;DHT22;11908;50.806;4.424;2023-05-15T01:46:13;11.70;99.90
23471;DHT22;11908;50.806;4.424;2023-05-15T01:48:40;11.80;99.90
23471;DHT22;11908;50.806;4.424;2023-05-15T01:51:09;11.70;99.90
23471;DHT22;11908;50.806;4.424;2023-05-15T01:53:36;11.80;99.90
23471;DHT22;11908;50.806;4.424;2023-05-15T01:56:04;11.80;99.90
23471;DHT22;11908;50.806;4.424;2023-05-15T01:58:31;11.60;99.90
23471;DHT22;11908;50.806;4.424;2023-05-15T02:00:59;11.70;99.90
23471;DHT22;11908;50.806;4.424;2023-05-15T02:03:25;11.80;99.90
23471;DHT22;11908;50.806;4.424;2023-05-15T02:05:51;11.80;99.90
23471;DHT22;11908;50.806;4.424;2023-05-15T02:08:19;11.70;99.90
23471;DHT22;11908;50.806;4.424;2023-05-15T02:10:45;11.80;99.90
23471;DHT22;11908;50.806;4.424;2023-05-15T02:13:12;11.80;99.90
23471;DHT22;11908;50.806;4.424;2023-05-15T02:15:39;11.90;99.90
23471;DHT22;11908;50.806;4.424;2023-05-15T02:18:04;11.90;99.90
23471;DHT22;11908;50.806;4.424;2023-05-15T02:20:31;11.90;99.90
23471;DHT22;11908;50.806;4.424;2023-05-15T02:22:56;12.00;99.90
23471;DHT22;11908;50.806;4.424;2023-05-15T02:28:22;12.00;99.90
23471;DHT22;11908;50.806;4.424;2023-05-15T02:30:54;11.80;99.90
23471;DHT22;11908;50.806;4.424;2023-05-15T02:34:08;11.80;99.90
23471;DHT22;11908;50.806;4.424;2023-05-15T02:36:39;11.90;99.90
23471;DHT22;11908;50.806;4.424;2023-05-15T02:39:06;12.00;99.90
23471;DHT22;11908;50.806;4.424;2023-05-15T02:41:34;11.90;99.90
23471;DHT22;11908;50.806;4.424;2023-05-15T02:44:00;12.00;99.90
23471;DHT22;11908;50.806;4.424;2023-05-15T02:46:27;12.00;99.90
23471;DHT22;11908;50.806;4.424;2023-05-15T02:48:54;12.00;99.90
23471;DHT22;11908;50.806;4.424;2023-05-15T02:51:22;12.00;99.90
23471;DHT22;11908;50.806;4.424;2023-05-15T02:53:48;11.90;99.90
23471;DHT22;11908;50.806;4.424;2023-05-15T02:56:14;11.80;99.90
23471;DHT22;11908;50.806;4.424;2023-05-15T02:58:40;11.70;99.90
23471;DHT22;11908;50.806;4.424;2023-05-15T03:01:06;11.70;99.90
23471;DHT22;11908;50.806;4.424;2023-05-15T03:03:32;11.70;99.90
23471;DHT22;11908;50.806;4.424;2023-05-15T03:05:57;11.60;99.90
23471;DHT22;11908;50.806;4.424;2023-05-15T03:08:25;11.50;99.90
23471;DHT22;11908;50.806;4.424;2023-05-15T03:10:51;11.50;99.90
23471;DHT22;11908;50.806;4.424;2023-05-15T03:13:16;11.50;99.90
23471;DHT22;11908;50.806;4.424;2023-05-15T03:15:45;11.50;99.90
23471;DHT22;11908;50.806;4.424;2023-05-15T03:18:10;11.50;99.90
23471;DHT22;11908;50.806;4.424;2023-05-15T03:20:36;11.50;99.90
23471;DHT22;11908;50.806;4.424;2023-05-15T03:23:02;11.40;99.90
23471;DHT22;11908;50.806;4.424;2023-05-15T03:25:27;11.40;99.90
23471;DHT22;11908;50.806;4.424;2023-05-15T03:27:53;11.40;99.90
23471;DHT22;11908;50.806;4.424;2023-05-15T03:30:19;11.40;99.90
23471;DHT22;11908;50.806;4.424;2023-05-15T03:32:44;11.40;99.90
23471;DHT22;11908;50.806;4.424;2023-05-15T03:35:10;11.40;99.90
23471;DHT22;11908;50.806;4.424;2023-05-15T03:37:36;11.40;99.90
23471;DHT22;11908;50.806;4.424;2023-05-15T03:40:02;11.30;99.90
23471;DHT22;11908;50.806;4.424;2023-05-15T03:42:29;11.30;99.90
23471;DHT22;11908;50.806;4.424;2023-05-15T03:44:54;11.30;99.90
23471;DHT22;11908;50.806;4.424;2023-05-15T03:47:20;11.30;99.90
23471;DHT22;11908;50.806;4.424;2023-05-15T03:49:46;11.30;99.90
23471;DHT22;11908;50.806;4.424;2023-05-15T03:52:12;11.20;99.90
23471;DHT22;11908;50.806;4.424;2023-05-15T03:54:41;11.30;99.90
23471;DHT22;11908;50.806;4.424;2023-05-15T03:57:07;11.30;99.90
23471;DHT22;11908;50.806;4.424;2023-05-15T03:59:33;11.50;99.90
23471;DHT22;11908;50.806;4.424;2023-05-15T04:01:58;11.60;99.90
23471;DHT22;11908;50.806;4.424;2023-05-15T04:04:24;11.60;99.90
23471;DHT22;11908;50.806;4.424;2023-05-15T04:06:50;11.50;99.90
23471;DHT22;11908;50.806;4.424;2023-05-15T04:09:16;11.60;99.90
23471;DHT22;11908;50.806;4.424;2023-05-15T04:11:42;11.60;99.90
23471;DHT22;11908;50.806;4.424;2023-05-15T04:14:08;11.70;99.90
23471;DHT22;11908;50.806;4.424;2023-05-15T04:16:33;11.70;99.90
23471;DHT22;11908;50.806;4.424;2023-05-15T04:18:59;11.60;99.90
23471;DHT22;11908;50.806;4.424;2023-05-15T04:21:25;11.50;99.90
23471;DHT22;11908;50.806;4.424;2023-05-15T04:23:50;11.60;99.90
23471;DHT22;11908;50.806;4.424;2023-05-15T04:26:16;11.60;99.90
23471;DHT22;11908;50.806;4.424;2023-05-15T04:28:42;11.60;99.90
23471;DHT22;11908;50.806;4.424;2023-05-15T04:31:08;11.60;99.90
23471;DHT22;11908;50.806;4.424;2023-05-15T04:33:33;11.60;99.90
23471;DHT22;11908;50.806;4.424;2023-05-15T04:35:59;11.50;99.90
23471;DHT22;11908;50.806;4.424;2023-05-15T04:38:25;11.60;99.90
23471;DHT22;11908;50.806;4.424;2023-05-15T04:40:51;11.70;99.90
23471;DHT22;11908;50.806;4.424;2023-05-15T04:43:16;11.80;99.90
23471;DHT22;11908;50.806;4.424;2023-05-15T04:45:42;11.90;99.90
23471;DHT22;11908;50.806;4.424;2023-05-15T04:48:08;11.90;99.90
23471;DHT22;11908;50.806;4.424;2023-05-15T04:50:33;11.60;99.90
23471;DHT22;11908;50.806;4.424;2023-05-15T04:52:59;11.60;99.90
23471;DHT22;11908;50.806;4.424;2023-05-15T04:55:25;11.60;99.90
23471;DHT22;11908;50.806;4.424;2023-05-15T04:57:50;11.70;99.90
23471;DHT22;11908;50.806;4.424;2023-05-15T05:00:16;11.70;99.90
23471;DHT22;11908;50.806;4.424;2023-05-15T05:02:42;12.00;99.90
23471;DHT22;11908;50.806;4.424;2023-05-15T05:05:08;12.00;99.90
23471;DHT22;11908;50.806;4.424;2023-05-15T05:07:34;12.20;99.90
23471;DHT22;11908;50.806;4.424;2023-05-15T05:10:00;12.20;99.90
23471;DHT22;11908;50.806;4.424;2023-05-15T05:12:26;12.20;99.90
23471;DHT22;11908;50.806;4.424;2023-05-15T05:14:52;12.30;99.90
23471;DHT22;11908;50.806;4.424;2023-05-15T05:17:17;12.40;99.90
23471;DHT22;11908;50.806;4.424;2023-05-15T05:19:43;12.40;99.90
23471;DHT22;11908;50.806;4.424;2023-05-15T05:22:09;12.30;99.90
23471;DHT22;11908;50.806;4.424;2023-05-15T05:24:35;12.10;99.90
23471;DHT22;11908;50.806;4.424;2023-05-15T05:27:05;12.10;99.90
23471;DHT22;11908;50.806;4.424;2023-05-15T05:29:31;12.10;99.90
23471;DHT22;11908;50.806;4.424;2023-05-15T05:31:57;12.00;99.90
23471;DHT22;11908;50.806;4.424;2023-05-15T05:34:22;12.00;99.90
23471;DHT22;11908;50.806;4.424;2023-05-15T05:36:48;12.00;99.90
23471;DHT22;11908;50.806;4.424;2023-05-15T05:39:15;12.10;99.90
23471;DHT22;11908;50.806;4.424;2023-05-15T05:41:43;12.00;99.90
23471;DHT22;11908;50.806;4.424;2023-05-15T05:44:09;12.20;99.90
23471;DHT22;11908;50.806;4.424;2023-05-15T05:46:35;12.30;99.90
23471;DHT22;11908;50.806;4.424;2023-05-15T05:49:01;12.30;99.90
23471;DHT22;11908;50.806;4.424;2023-05-15T05:51:26;12.50;99.90
23471;DHT22;11908;50.806;4.424;2023-05-15T05:53:52;12.60;99.90
23471;DHT22;11908;50.806;4.424;2023-05-15T05:56:18;12.70;99.90
23471;DHT22;11908;50.806;4.424;2023-05-15T05:58:43;12.60;99.90
23471;DHT22;11908;50.806;4.424;2023-05-15T06:01:09;12.70;99.90
23471;DHT22;11908;50.806;4.424;2023-05-15T06:03:36;12.60;99.90
23471;DHT22;11908;50.806;4.424;2023-05-15T06:06:02;12.60;99.90
23471;DHT22;11908;50.806;4.424;2023-05-15T06:08:28;12.60;99.90
23471;DHT22;11908;50.806;4.424;2023-05-15T06:10:54;12.60;99.90
23471;DHT22;11908;50.806;4.424;2023-05-15T06:13:20;12.70;99.90
23471;DHT22;11908;50.806;4.424;2023-05-15T06:15:46;12.50;99.90
23471;DHT22;11908;50.806;4.424;2023-05-15T06:18:12;12.50;99.90
23471;DHT22;11908;50.806;4.424;2023-05-15T06:20:38;12.50;99.90
23471;DHT22;11908;50.806;4.424;2023-05-15T06:23:03;12.60;99.90
23471;DHT22;11908;50.806;4.424;2023-05-15T06:25:29;12.60;99.90
23471;DHT22;11908;50.806;4.424;2023-05-15T06:27:55;12.80;99.90
23471;DHT22;11908;50.806;4.424;2023-05-15T06:30:20;13.00;99.90
23471;DHT22;11908;50.806;4.424;2023-05-15T06:32:46;13.10;99.90
23471;DHT22;11908;50.806;4.424;2023-05-15T06:35:12;13.30;99.90
23471;DHT22;11908;50.806;4.424;2023-05-15T06:37:38;13.40;99.90
23471;DHT22;11908;50.806;4.424;2023-05-15T06:40:04;13.70;99.90
23471;DHT22;11908;50.806;4.424;2023-05-15T06:42:31;13.90;99.90
23471;DHT22;11908;50.806;4.424;2023-05-15T06:44:56;14.20;99.90
23471;DHT22;11908;50.806;4.424;2023-05-15T06:47:22;14.10;99.90
23471;DHT22;11908;50.806;4.424;2023-05-15T06:49:48;14.20;99.90
23471;DHT22;11908;50.806;4.424;2023-05-15T06:52:13;14.40;99.90
23471;DHT22;11908;50.806;4.424;2023-05-15T06:54:39;14.30;99.90
23471;DHT22;11908;50.806;4.424;2023-05-15T06:57:06;14.10;99.90
23471;DHT22;11908;50.806;4.424;2023-05-15T06:59:32;14.10;99.90
23471;DHT22;11908;50.806;4.424;2023-05-15T07:02:00;14.00;99.90
23471;DHT22;11908;50.806;4.424;2023-05-15T07:04:26;14.20;99.90
23471;DHT22;11908;50.806;4.424;2023-05-15T07:06:52;14.40;99.90
23471;DHT22;11908;50.806;4.424;2023-05-15T07:09:17;14.50;99.90
23471;DHT22;11908;50.806;4.424;2023-05-15T07:11:43;14.70;99.90
23471;DHT22;11908;50.806;4.424;2023-05-15T07:14:09;15.00;99.90
23471;DHT22;11908;50.806;4.424;2023-05-15T07:16:34;14.90;99.90
23471;DHT22;11908;50.806;4.424;2023-05-15T07:19:00;15.20;99.90
23471;DHT22;11908;50.806;4.424;2023-05-15T07:21:26;15.50;99.90
23471;DHT22;11908;50.806;4.424;2023-05-15T07:23:51;15.60;99.90
23471;DHT22;11908;50.806;4.424;2023-05-15T07:26:17;15.40;99.90
23471;DHT22;11908;50.806;4.424;2023-05-15T07:28:43;15.60;99.90
23471;DHT22;11908;50.806;4.424;2023-05-15T07:31:08;15.70;99.90
23471;DHT22;11908;50.806;4.424;2023-05-15T07:33:34;15.50;99.90
23471;DHT22;11908;50.806;4.424;2023-05-15T07:36:00;15.70;99.90
23471;DHT22;11908;50.806;4.424;2023-05-15T07:38:25;15.80;99.90
23471;DHT22;11908;50.806;4.424;2023-05-15T07:40:51;15.90;99.90
23471;DHT22;11908;50.806;4.424;2023-05-15T07:43:17;15.90;99.90
23471;DHT22;11908;50.806;4.424;2023-05-15T07:45:42;15.90;99.90
23471;DHT22;11908;50.806;4.424;2023-05-15T07:48:16;16.40;99.90
23471;DHT22;11908;50.806;4.424;2023-05-15T07:50:42;16.90;99.90
23471;DHT22;11908;50.806;4.424;2023-05-15T07:53:08;17.60;99.90
23471;DHT22;11908;50.806;4.424;2023-05-15T07:55:34;18.10;99.90
23471;DHT22;11908;50.806;4.424;2023-05-15T07:57:59;19.00;99.90
23471;DHT22;11908;50.806;4.424;2023-05-15T08:00:25;19.60;99.90
23471;DHT22;11908;50.806;4.424;2023-05-15T08:02:51;20.40;99.90
23471;DHT22;11908;50.806;4.424;2023-05-15T08:05:16;21.00;99.90
23471;DHT22;11908;50.806;4.424;2023-05-15T08:07:42;21.80;99.90
23471;DHT22;11908;50.806;4.424;2023-05-15T08:10:08;22.70;99.90
23471;DHT22;11908;50.806;4.424;2023-05-15T08:12:34;23.00;99.90
23471;DHT22;11908;50.806;4.424;2023-05-15T08:15:00;22.40;99.90
23471;DHT22;11908;50.806;4.424;2023-05-15T08:17:25;22.40;99.90
23471;DHT22;11908;50.806;4.424;2023-05-15T08:19:51;22.30;99.90
23471;DHT22;11908;50.806;4.424;2023-05-15T08:22:17;22.50;99.90
23471;DHT22;11908;50.806;4.424;2023-05-15T08:24:43;22.80;99.90
23471;DHT22;11908;50.806;4.424;2023-05-15T08:27:09;22.60;99.90
23471;DHT22;11908;50.806;4.424;2023-05-15T08:29:36;21.00;99.90
23471;DHT22;11908;50.806;4.424;2023-05-15T08:32:02;20.50;99.90
23471;DHT22;11908;50.806;4.424;2023-05-15T08:34:28;20.40;99.90
23471;DHT22;11908;50.806;4.424;2023-05-15T08:36:54;20.20;99.90
23471;DHT22;11908;50.806;4.424;2023-05-15T08:39:21;20.00;99.90
23471;DHT22;11908;50.806;4.424;2023-05-15T08:44:35;19.80;99.90
23471;DHT22;11908;50.806;4.424;2023-05-15T08:47:01;19.60;99.90
23471;DHT22;11908;50.806;4.424;2023-05-15T08:50:01;19.20;99.90
23471;DHT22;11908;50.806;4.424;2023-05-15T08:52:31;19.50;99.90
23471;DHT22;11908;50.806;4.424;2023-05-15T08:54:58;19.90;99.90
23471;DHT22;11908;50.806;4.424;2023-05-15T08:57:25;19.30;99.90
23471;DHT22;11908;50.806;4.424;2023-05-15T08:59:51;18.60;99.90
23471;DHT22;11908;50.806;4.424;2023-05-15T09:02:19;18.30;99.90
23471;DHT22;11908;50.806;4.424;2023-05-15T09:04:45;18.60;99.90
23471;DHT22;11908;50.806;4.424;2023-05-15T09:07:11;19.00;99.90
23471;DHT22;11908;50.806;4.424;2023-05-15T09:09:37;18.40;99.90
23471;DHT22;11908;50.806;4.424;2023-05-15T09:12:05;18.20;99.90
23471;DHT22;11908;50.806;4.424;2023-05-15T09:14:32;18.70;99.90
23471;DHT22;11908;50.806;4.424;2023-05-15T09:16:57;19.50;99.90
23471;DHT22;11908;50.806;4.424;2023-05-15T09:19:23;19.20;99.90
23471;DHT22;11908;50.806;4.424;2023-05-15T09:21:49;19.80;99.90
23471;DHT22;11908;50.806;4.424;2023-05-15T09:26:47;20.50;99.90
23471;DHT22;11908;50.806;4.424;2023-05-15T09:29:26;20.20;99.90
23471;DHT22;11908;50.806;4.424;2023-05-15T09:31:53;20.40;99.90
23471;DHT22;11908;50.806;4.424;2023-05-15T09:34:31;20.90;99.90
23471;DHT22;11908;50.806;4.424;2023-05-15T09:36:57;21.10;99.90
23471;DHT22;11908;50.806;4.424;2023-05-15T09:39:23;20.20;99.90
23471;DHT22;11908;50.806;4.424;2023-05-15T09:41:49;19.40;99.90
23471;DHT22;11908;50.806;4.424;2023-05-15T09:44:22;19.20;99.90
23471;DHT22;11908;50.806;4.424;2023-05-15T09:46:49;19.50;99.90
23471;DHT22;11908;50.806;4.424;2023-05-15T09:49:15;19.50;99.90
23471;DHT22;11908;50.806;4.424;2023-05-15T09:51:42;19.50;99.90
23471;DHT22;11908;50.806;4.424;2023-05-15T09:54:17;19.30;99.90
23471;DHT22;11908;50.806;4.424;2023-05-15T09:56:46;19.20;99.90
23471;DHT22;11908;50.806;4.424;2023-05-15T09:59:18;19.20;99.90
23471;DHT22;11908;50.806;4.424;2023-05-15T10:01:48;19.60;99.90
23471;DHT22;11908;50.806;4.424;2023-05-15T10:04:14;19.60;99.90
23471;DHT22;11908;50.806;4.424;2023-05-15T10:06:42;19.60;99.90
23471;DHT22;11908;50.806;4.424;2023-05-15T10:09:08;20.00;99.90
23471;DHT22;11908;50.806;4.424;2023-05-15T10:11:40;20.80;99.90
23471;DHT22;11908;50.806;4.424;2023-05-15T10:14:07;21.00;99.90
23471;DHT22;11908;50.806;4.424;2023-05-15T10:16:35;20.70;99.90
23471;DHT22;11908;50.806;4.424;2023-05-15T10:19:09;21.20;99.90
23471;DHT22;11908;50.806;4.424;2023-05-15T10:21:36;21.10;99.90
23471;DHT22;11908;50.806;4.424;2023-05-15T10:24:03;21.10;99.90
23471;DHT22;11908;50.806;4.424;2023-05-15T10:26:34;21.50;99.90
23471;DHT22;11908;50.806;4.424;2023-05-15T10:29:01;20.80;99.90
23471;DHT22;11908;50.806;4.424;2023-05-15T10:31:29;20.50;99.90
23471;DHT22;11908;50.806;4.424;2023-05-15T10:33:55;20.50;99.90
23471;DHT22;11908;50.806;4.424;2023-05-15T10:36:21;20.30;99.90
23471;DHT22;11908;50.806;4.424;2023-05-15T10:38:48;20.30;99.90
23471;DHT22;11908;50.806;4.424;2023-05-15T10:41:16;20.30;99.90
23471;DHT22;11908;50.806;4.424;2023-05-15T10:43:42;19.50;99.90
23471;DHT22;11908;50.806;4.424;2023-05-15T10:46:09;19.20;99.90
23471;DHT22;11908;50.806;4.424;2023-05-15T10:48:35;19.50;99.90
23471;DHT22;11908;50.806;4.424;2023-05-15T10:51:01;19.90;99.90
23471;DHT22;11908;50.806;4.424;2023-05-15T10:53:27;19.90;99.90
23471;DHT22;11908;50.806;4.424;2023-05-15T10:55:53;19.80;99.90
23471;DHT22;11908;50.806;4.424;2023-05-15T10:58:24;19.90;99.90
23471;DHT22;11908;50.806;4.424;2023-05-15T11:00:50;19.70;99.90
23471;DHT22;11908;50.806;4.424;2023-05-15T11:03:34;19.70;99.90
23471;DHT22;11908;50.806;4.424;2023-05-15T11:06:10;19.90;99.90
23471;DHT22;11908;50.806;4.424;2023-05-15T11:08:39;20.10;99.90
23471;DHT22;11908;50.806;4.424;2023-05-15T11:11:05;20.00;99.90
23471;DHT22;11908;50.806;4.424;2023-05-15T11:22:39;20.30;99.90
23471;DHT22;11908;50.806;4.424;2023-05-15T11:30:17;20.20;99.90
23471;DHT22;11908;50.806;4.424;2023-05-15T11:32:56;20.00;99.90
23471;DHT22;11908;50.806;4.424;2023-05-15T11:35:34;20.00;99.90
23471;DHT22;11908;50.806;4.424;2023-05-15T11:38:02;19.70;99.90
23471;DHT22;11908;50.806;4.424;2023-05-15T11:40:30;19.20;99.90
23471;DHT22;11908;50.806;4.424;2023-05-15T11:43:30;19.20;99.90
23471;DHT22;11908;50.806;4.424;2023-05-15T11:46:07;19.40;99.90
23471;DHT22;11908;50.806;4.424;2023-05-15T11:48:33;19.10;99.90
23471;DHT22;11908;50.806;4.424;2023-05-15T11:51:00;18.80;99.90
23471;DHT22;11908;50.806;4.424;2023-05-15T11:53:28;18.60;99.90
23471;DHT22;11908;50.806;4.424;2023-05-15T11:55:54;18.50;99.90
23471;DHT22;11908;50.806;4.424;2023-05-15T11:58:21;18.50;99.90
23471;DHT22;11908;50.806;4.424;2023-05-15T12:00:48;18.50;99.90
23471;DHT22;11908;50.806;4.424;2023-05-15T12:03:22;18.50;99.90
23471;DHT22;11908;50.806;4.424;2023-05-15T12:05:48;18.20;99.90
23471;DHT22;11908;50.806;4.424;2023-05-15T12:08:14;18.20;99.90
23471;DHT22;11908;50.806;4.424;2023-05-15T12:10:44;18.20;99.90
23471;DHT22;11908;50.806;4.424;2023-05-15T12:13:11;18.30;99.90
23471;DHT22;11908;50.806;4.424;2023-05-15T12:15:39;18.10;99.90
23471;DHT22;11908;50.806;4.424;2023-05-15T12:18:05;18.00;99.90
23471;DHT22;11908;50.806;4.424;2023-05-15T12:20:36;17.70;99.90
23471;DHT22;11908;50.806;4.424;2023-05-15T12:23:14;17.60;99.90
23471;DHT22;11908;50.806;4.424;2023-05-15T12:25:41;17.60;99.90
23471;DHT22;11908;50.806;4.424;2023-05-15T12:28:07;17.70;99.90
23471;DHT22;11908;50.806;4.424;2023-05-15T12:30:33;18.00;99.90
23471;DHT22;11908;50.806;4.424;2023-05-15T12:33:02;18.30;99.90
23471;DHT22;11908;50.806;4.424;2023-05-15T12:35:28;18.90;99.90
23471;DHT22;11908;50.806;4.424;2023-05-15T12:37:54;19.20;99.90
23471;DHT22;11908;50.806;4.424;2023-05-15T12:40:21;19.50;99.90
23471;DHT22;11908;50.806;4.424;2023-05-15T12:42:51;19.70;99.90
23471;DHT22;11908;50.806;4.424;2023-05-15T12:45:21;19.30;99.90
23471;DHT22;11908;50.806;4.424;2023-05-15T12:47:49;18.80;99.90
23471;DHT22;11908;50.806;4.424;2023-05-15T12:50:22;18.50;99.90
23471;DHT22;11908;50.806;4.424;2023-05-15T12:52:52;18.40;99.90
23471;DHT22;11908;50.806;4.424;2023-05-15T12:55:23;18.20;99.90
23471;DHT22;11908;50.806;4.424;2023-05-15T12:57:50;17.90;99.90
23471;DHT22;11908;50.806;4.424;2023-05-15T13:00:16;17.70;99.90
23471;DHT22;11908;50.806;4.424;2023-05-15T13:02:43;17.20;99.90
23471;DHT22;11908;50.806;4.424;2023-05-15T13:05:09;17.00;99.90
23471;DHT22;11908;50.806;4.424;2023-05-15T13:07:35;16.70;99.90
23471;DHT22;11908;50.806;4.424;2023-05-15T13:10:03;16.50;99.90
23471;DHT22;11908;50.806;4.424;2023-05-15T13:12:44;16.50;99.90
23471;DHT22;11908;50.806;4.424;2023-05-15T13:18:06;16.50;99.90
23471;DHT22;11908;50.806;4.424;2023-05-15T13:20:54;16.20;99.90
23471;DHT22;11908;50.806;4.424;2023-05-15T13:23:19;16.00;99.90
23471;DHT22;11908;50.806;4.424;2023-05-15T13:25:46;15.60;99.90
23471;DHT22;11908;50.806;4.424;2023-05-15T13:28:12;15.50;99.90
23471;DHT22;11908;50.806;4.424;2023-05-15T13:30:38;15.30;99.90
23471;DHT22;11908;50.806;4.424;2023-05-15T13:33:11;15.20;99.90
23471;DHT22;11908;50.806;4.424;2023-05-15T13:35:37;14.90;99.90
23471;DHT22;11908;50.806;4.424;2023-05-15T13:38:03;14.70;99.90
23471;DHT22;11908;50.806;4.424;2023-05-15T13:40:29;14.50;99.90
23471;DHT22;11908;50.806;4.424;2023-05-15T13:42:57;14.30;99.90
23471;DHT22;11908;50.806;4.424;2023-05-15T13:45:23;14.30;99.90
23471;DHT22;11908;50.806;4.424;2023-05-15T13:47:49;14.20;99.90
23471;DHT22;11908;50.806;4.424;2023-05-15T13:50:15;14.20;99.90
23471;DHT22;11908;50.806;4.424;2023-05-15T13:52:42;14.10;99.90
23471;DHT22;11908;50.806;4.424;2023-05-15T13:55:09;14.00;99.90
23471;DHT22;11908;50.806;4.424;2023-05-15T13:57:38;14.00;99.90
23471;DHT22;11908;50.806;4.424;2023-05-15T14:00:06;14.00;99.90
23471;DHT22;11908;50.806;4.424;2023-05-15T14:02:32;14.20;99.90
23471;DHT22;11908;50.806;4.424;2023-05-15T14:04:58;14.10;99.90
23471;DHT22;11908;50.806;4.424;2023-05-15T14:07:24;14.10;99.90
23471;DHT22;11908;50.806;4.424;2023-05-15T14:09:50;13.90;99.90
23471;DHT22;11908;50.806;4.424;2023-05-15T14:12:16;13.90;99.90
23471;DHT22;11908;50.806;4.424;2023-05-15T14:14:44;14.00;99.90
23471;DHT22;11908;50.806;4.424;2023-05-15T14:17:09;13.90;99.90
23471;DHT22;11908;50.806;4.424;2023-05-15T14:19:35;13.80;99.90
23471;DHT22;11908;50.806;4.424;2023-05-15T14:22:01;13.80;99.90
23471;DHT22;11908;50.806;4.424;2023-05-15T14:24:26;13.80;99.90
23471;DHT22;11908;50.806;4.424;2023-05-15T14:26:52;13.70;99.90
23471;DHT22;11908;50.806;4.424;2023-05-15T14:29:17;13.70;99.90
23471;DHT22;11908;50.806;4.424;2023-05-15T14:31:43;13.80;99.90
23471;DHT22;11908;50.806;4.424;2023-05-15T14:34:09;13.80;99.90
23471;DHT22;11908;50.806;4.424;2023-05-15T14:36:35;13.60;99.90
23471;DHT22;11908;50.806;4.424;2023-05-15T14:39:01;13.50;99.90
23471;DHT22;11908;50.806;4.424;2023-05-15T14:41:27;13.50;99.90
23471;DHT22;11908;50.806;4.424;2023-05-15T14:43:53;13.60;99.90
23471;DHT22;11908;50.806;4.424;2023-05-15T14:46:18;13.70;99.90
23471;DHT22;11908;50.806;4.424;2023-05-15T14:48:44;13.80;99.90
23471;DHT22;11908;50.806;4.424;2023-05-15T14:51:10;13.60;99.90
23471;DHT22;11908;50.806;4.424;2023-05-15T14:53:35;13.50;99.90
23471;DHT22;11908;50.806;4.424;2023-05-15T14:56:02;13.40;99.90
23471;DHT22;11908;50.806;4.424;2023-05-15T14:58:28;13.30;99.90
23471;DHT22;11908;50.806;4.424;2023-05-15T15:00:54;13.40;99.90
23471;DHT22;11908;50.806;4.424;2023-05-15T15:03:20;13.30;99.90
23471;DHT22;11908;50.806;4.424;2023-05-15T15:05:46;13.30;99.90
23471;DHT22;11908;50.806;4.424;2023-05-15T15:08:12;13.40;99.90
23471;DHT22;11908;50.806;4.424;2023-05-15T15:10:39;13.60;99.90
23471;DHT22;11908;50.806;4.424;2023-05-15T15:13:05;13.60;99.90
23471;DHT22;11908;50.806;4.424;2023-05-15T15:15:32;13.60;99.90
23471;DHT22;11908;50.806;4.424;2023-05-15T15:17:58;13.70;99.90
23471;DHT22;11908;50.806;4.424;2023-05-15T15:20:26;13.70;99.90
23471;DHT22;11908;50.806;4.424;2023-05-15T15:22:52;13.50;99.90
23471;DHT22;11908;50.806;4.424;2023-05-15T15:25:18;13.40;99.90
23471;DHT22;11908;50.806;4.424;2023-05-15T15:27:45;13.40;99.90
23471;DHT22;11908;50.806;4.424;2023-05-15T15:30:12;13.40;99.90
23471;DHT22;11908;50.806;4.424;2023-05-15T15:32:39;13.50;99.90
23471;DHT22;11908;50.806;4.424;2023-05-15T15:35:05;13.40;99.90
23471;DHT22;11908;50.806;4.424;2023-05-15T15:37:32;13.50;99.90
23471;DHT22;11908;50.806;4.424;2023-05-15T15:40:02;13.50;99.90
23471;DHT22;11908;50.806;4.424;2023-05-15T15:42:30;13.50;99.90
23471;DHT22;11908;50.806;4.424;2023-05-15T15:44:56;13.50;99.90
23471;DHT22;11908;50.806;4.424;2023-05-15T15:47:22;13.50;99.90
23471;DHT22;11908;50.806;4.424;2023-05-15T15:49:49;13.60;99.90
23471;DHT22;11908;50.806;4.424;2023-05-15T15:52:15;13.80;99.90
23471;DHT22;11908;50.806;4.424;2023-05-15T15:54:41;14.00;99.90
23471;DHT22;11908;50.806;4.424;2023-05-15T15:57:12;14.00;99.90
23471;DHT22;11908;50.806;4.424;2023-05-15T15:59:38;14.10;99.90
23471;DHT22;11908;50.806;4.424;2023-05-15T16:02:05;14.30;99.90
23471;DHT22;11908;50.806;4.424;2023-05-15T16:04:32;14.20;99.90
23471;DHT22;11908;50.806;4.424;2023-05-15T16:06:57;14.20;99.90
23471;DHT22;11908;50.806;4.424;2023-05-15T16:09:23;14.00;99.90
23471;DHT22;11908;50.806;4.424;2023-05-15T16:11:49;13.90;99.90
23471;DHT22;11908;50.806;4.424;2023-05-15T16:14:14;13.80;99.90
23471;DHT22;11908;50.806;4.424;2023-05-15T16:16:40;13.70;99.90
23471;DHT22;11908;50.806;4.424;2023-05-15T16:19:06;13.80;99.90